AirNav   Bose Proflight or Bose A20?
 
 294 users online  

AL37 Benedick Airport
Jack, Alabama, USA

GOING TO JACK?


FAA INFORMATION EFFECTIVE 23 MAY 2019

Location

FAA Identifier: AL37
Lat/Long: 31-33-18.1000N / 085-58-38.2000W
31-33.301667N / 085-58.636667W
31.5550278 / -85.9772778
(estimated)
Elevation: 335 ft. / 102 m (estimated)
From city: 2 miles SE of JACK, AL
Time zone: UTC -5 (UTC -6 during Standard Time)
Zip code: 36346

Airport Operations

Airport use: Private use. Permission required prior to landing
Activation date: 06/2008
Control tower: no
ARTCC: JACKSONVILLE CENTER
FSS: ANNISTON FLIGHT SERVICE STATION
Attendance: IRREG
Wind indicator: yes
Segmented circle: no

Airport Communications

WX AWOS-3PT at EDN (16 nm S): 118.9 (334-347-3524)
WX ASOS at TOI (18 nm N): PHONE 334-566-3081

Nearby radio navigation aids

VOR radial/distance  VOR name  Freq  Var
EDNr349/(16.0)ENTERPRISE VOR116.6003W
HEYr306/(19.8)HANCHEY VOR110.6003W
OZRr326/21.4CAIRNS VOR/DME111.2003W
RRSr298/32.3WIREGRASS VORTAC111.6002E

 
NDB name  Hdg/Dist  Freq  Var  ID
BOLL WEEVIL004/12.935203WBVG -... ...- --.
LOWE317/16.726903WLOR .-.. --- .-.
BLOOD162/17.836504WTOI - --- ..
HANCHEY306/19.722103WHYE .... -.-- .
JUDD057/25.926402WJUY .--- ..- -.--

Airport Services

Runway Information

Runway 8/26

Dimensions: 1800 x 50 ft. / 549 x 15 m
Surface: turf, in fair condition
RUNWAY 8  RUNWAY 26
Traffic pattern: leftleft
Obstructions: 40 ft. trees, 200 ft. from runwaynone

Airport Ownership and Management from official FAA records

Ownership: Privately-owned
Owner: RICHARD J BENEDICK
374 COUNTY ROAD 205
JACK, AL 36346
Phone 334-897-0279
Manager: RICHARD J BENEDICK
374 COUNTY ROAD 205
JACK, AL 36346
Phone 334-897-0279

Airport Operational Statistics

Aircraft based on the field: 1
Single engine airplanes: 1
    

Instrument Procedures

There are no published instrument procedures at AL37.

Some nearby airports with instrument procedures:

KEDN - Enterprise Municipal Airport (16 nm S)
KLOR - Lowe Army Heliport (Fort Rucker) (17 nm SE)
KTOI - Troy Municipal Airport at N Kenneth Campbell Field (18 nm N)
71J - Ozark-Blackwell Field Airport (20 nm E)
KHEY - Hanchey Army Heliport (Fort Rucker) (21 nm SE)
 
Loc | Ops | Rwys | IFR | FBO | Links
Com | Nav | Svcs | Stats | Notes
Aerial photo
No photo
 
Sectional chart

 
Airport distance calculator
Flying to Benedick Airport? Find the distance to fly.

From to AL37

Sunrise and sunset
Times for 16-Jun-2019
 Local
(UTC-5)
 Zulu
(UTC)
Morning civil twilight05:1210:12
Sunrise05:4010:40
Sunset19:5000:50
Evening civil twilight20:1801:18

Current date and time
Zulu (UTC)  16-Jun-2019 09:27:06
Local (UTC-5)  16-Jun-2019 04:27:06
 
METAR
KSXS 
13nm SE 
160858Z AUTO 00000KT 10SM CLR 22/21 A3000 RMK AO2 SLP157 T02200213 56014 $
KEDN 
16nm S 
160915Z AUTO 00000KT 10SM CLR 21/21 A3001 RMK AO2 T02100210
KLOR 
17nm SE 
160858Z AUTO 00000KT 10SM CLR 21/20 A3000 RMK AO2 SLP140 T02050203 56014
KTOI 
18nm N 
160853Z AUTO 00000KT 8SM CLR 20/20 A3001 RMK AO2 SLP156 T02000200 58013
KHEY 
21nm SE 
160858Z AUTO 00000KT 10SM CLR 21/21 A2999 RMK AO2 SLP155 T02090209 57015
KOZR 
21nm SE 
160856Z AUTO 00000KT 10SM CLR 22/21 A3000 RMK AO2 SLP158 T02170210 56015
K79J 
26nm SW 
160856Z AUTO 00000KT 9SM CLR 22/20 A3000 RMK AO2 SLP154 T02220200 $
TAF
KTOI 
18nm N 
160527Z 1606/1706 14003KT P6SM SCT250 FM161000 00000KT 4SM BR FEW002 SCT250 FM161300 21003KT P6SM BKN025 FM161600 20006KT P6SM BKN050 FM170000 15003KT P6SM BKN050
NOTAMs
Click for the latest NOTAMs
NOTAMs are issued by the DoD/FAA and will open in a separate window not controlled by AirNav.

 

 
 

Would you like to see your business listed on this page?

 If your business provides an interesting product or service to pilots, flight crews, aircraft, or users of the Benedick Airport, you should consider listing it here.  To start the listing process, click on the button below
 
Add a business
 

Other Pages about Benedick Airport

Update a link
 
Copyright © AirNav, LLC. All rights reserved. Privacy Policy  Contact